Terminal Aerodrome Forecast
Issued by NWS

Home | Current Version | Previous Version | Text Only | Print | Product List | Glossary On
Versions: 1 2 3 4 5 6 7 8 9 10 11 12 13 14 15
163
FTUS42 KMLB 272346
TAFFPR
TAF
KFPR 272346Z 2800/2824 VRB05KT P6SM VCSH SCT040 BKN100
     FM280200 VRB03KT P6SM FEW120 SCT250
     FM281600 08009KT P6SM VCTS SCT020CB SCT250
     FM282200 09009KT P6SM SCT035 BKN250=

USA.gov is the U.S. government's official web portal to all federal, state and local government web resources and services.